sensor_id;sensor_type;location;lat;lon;timestamp;P1;durP1;ratioP1;P2;durP2;ratioP2
63664;SDS011;49820;33.966;73.390;2022-11-18T00:01:38;9.83;;;4.60;;
63664;SDS011;49820;33.966;73.390;2022-11-18T00:04:06;9.23;;;4.20;;
63664;SDS011;49820;33.966;73.390;2022-11-18T00:06:35;9.68;;;4.93;;
63664;SDS011;49820;33.966;73.390;2022-11-18T00:09:04;8.68;;;4.70;;
63664;SDS011;49820;33.966;73.390;2022-11-18T00:11:33;10.95;;;5.43;;
63664;SDS011;49820;33.966;73.390;2022-11-18T00:14:22;7.80;;;4.28;;
63664;SDS011;49820;33.966;73.390;2022-11-18T00:16:55;6.03;;;4.00;;
63664;SDS011;49820;33.966;73.390;2022-11-18T00:19:29;5.57;;;3.20;;
63664;SDS011;49820;33.966;73.390;2022-11-18T00:22:06;6.10;;;3.13;;
63664;SDS011;49820;33.966;73.390;2022-11-18T00:24:38;4.90;;;3.25;;
63664;SDS011;49820;33.966;73.390;2022-11-18T00:27:07;5.75;;;3.53;;
63664;SDS011;49820;33.966;73.390;2022-11-18T00:29:36;8.60;;;4.25;;
63664;SDS011;49820;33.966;73.390;2022-11-18T00:32:13;7.25;;;4.05;;
63664;SDS011;49820;33.966;73.390;2022-11-18T00:34:42;6.18;;;3.83;;
63664;SDS011;49820;33.966;73.390;2022-11-18T00:37:11;7.47;;;4.22;;
63664;SDS011;49820;33.966;73.390;2022-11-18T00:39:40;7.18;;;3.95;;
63664;SDS011;49820;33.966;73.390;2022-11-18T00:42:09;7.40;;;3.85;;
63664;SDS011;49820;33.966;73.390;2022-11-18T00:44:57;6.63;;;4.07;;
63664;SDS011;49820;33.966;73.390;2022-11-18T00:47:26;8.07;;;3.80;;
63664;SDS011;49820;33.966;73.390;2022-11-18T00:49:55;6.65;;;3.92;;
63664;SDS011;49820;33.966;73.390;2022-11-18T00:52:24;6.80;;;4.32;;
63664;SDS011;49820;33.966;73.390;2022-11-18T00:54:52;7.43;;;4.75;;
63664;SDS011;49820;33.966;73.390;2022-11-18T00:57:21;7.55;;;4.72;;
63664;SDS011;49820;33.966;73.390;2022-11-18T00:59:50;7.83;;;4.50;;
63664;SDS011;49820;33.966;73.390;2022-11-18T01:02:19;8.30;;;4.88;;
63664;SDS011;49820;33.966;73.390;2022-11-18T01:04:48;8.88;;;4.97;;
63664;SDS011;49820;33.966;73.390;2022-11-18T01:07:18;9.27;;;5.72;;
63664;SDS011;49820;33.966;73.390;2022-11-18T01:09:47;10.48;;;5.30;;
63664;SDS011;49820;33.966;73.390;2022-11-18T01:12:15;8.05;;;4.20;;
63664;SDS011;49820;33.966;73.390;2022-11-18T01:15:03;5.90;;;3.33;;
63664;SDS011;49820;33.966;73.390;2022-11-18T01:17:32;5.82;;;3.42;;
63664;SDS011;49820;33.966;73.390;2022-11-18T01:20:01;5.10;;;2.90;;
63664;SDS011;49820;33.966;73.390;2022-11-18T01:22:30;4.88;;;2.95;;
63664;SDS011;49820;33.966;73.390;2022-11-18T01:24:59;5.43;;;3.17;;
63664;SDS011;49820;33.966;73.390;2022-11-18T01:27:28;6.07;;;3.25;;
63664;SDS011;49820;33.966;73.390;2022-11-18T01:29:58;4.90;;;2.70;;
63664;SDS011;49820;33.966;73.390;2022-11-18T01:32:27;4.47;;;2.60;;
63664;SDS011;49820;33.966;73.390;2022-11-18T01:34:56;4.45;;;2.42;;
63664;SDS011;49820;33.966;73.390;2022-11-18T01:37:25;4.22;;;2.50;;
63664;SDS011;49820;33.966;73.390;2022-11-18T01:39:54;4.78;;;2.45;;
63664;SDS011;49820;33.966;73.390;2022-11-18T01:42:23;4.93;;;2.40;;
63664;SDS011;49820;33.966;73.390;2022-11-18T01:47:40;4.88;;;2.55;;
63664;SDS011;49820;33.966;73.390;2022-11-18T01:50:17;3.80;;;2.00;;
63664;SDS011;49820;33.966;73.390;2022-11-18T01:52:49;3.67;;;2.22;;
63664;SDS011;49820;33.966;73.390;2022-11-18T01:55:24;3.33;;;2.17;;
63664;SDS011;49820;33.966;73.390;2022-11-18T01:58:06;3.92;;;2.30;;
63664;SDS011;49820;33.966;73.390;2022-11-18T02:00:40;4.30;;;2.35;;
63664;SDS011;49820;33.966;73.390;2022-11-18T02:03:08;4.20;;;2.33;;
63664;SDS011;49820;33.966;73.390;2022-11-18T02:05:38;3.25;;;2.05;;
63664;SDS011;49820;33.966;73.390;2022-11-18T02:08:09;3.33;;;1.90;;
63664;SDS011;49820;33.966;73.390;2022-11-18T02:10:38;3.75;;;2.20;;
63664;SDS011;49820;33.966;73.390;2022-11-18T02:13:07;4.68;;;3.05;;
63664;SDS011;49820;33.966;73.390;2022-11-18T02:18:27;8.82;;;4.43;;
63664;SDS011;49820;33.966;73.390;2022-11-18T02:21:10;7.45;;;4.50;;
63664;SDS011;49820;33.966;73.390;2022-11-18T02:30:02;11.73;;;5.50;;
63664;SDS011;49820;33.966;73.390;2022-11-18T02:35:24;7.30;;;4.35;;
63664;SDS011;49820;33.966;73.390;2022-11-18T02:43:23;8.68;;;4.10;;
63664;SDS011;49820;33.966;73.390;2022-11-18T02:45:59;7.05;;;3.45;;
63664;SDS011;49820;33.966;73.390;2022-11-18T02:48:34;5.57;;;3.28;;
63664;SDS011;49820;33.966;73.390;2022-11-18T02:51:08;7.00;;;4.00;;
63664;SDS011;49820;33.966;73.390;2022-11-18T02:53:40;6.45;;;4.40;;
63664;SDS011;49820;33.966;73.390;2022-11-18T02:56:10;6.73;;;3.70;;
63664;SDS011;49820;33.966;73.390;2022-11-18T02:58:43;7.20;;;3.40;;
63664;SDS011;49820;33.966;73.390;2022-11-18T03:01:19;5.30;;;2.40;;
63664;SDS011;49820;33.966;73.390;2022-11-18T03:03:52;5.97;;;3.35;;
63664;SDS011;49820;33.966;73.390;2022-11-18T03:06:34;5.18;;;3.17;;
63664;SDS011;49820;33.966;73.390;2022-11-18T03:09:13;4.90;;;2.80;;
63664;SDS011;49820;33.966;73.390;2022-11-18T03:14:50;5.95;;;3.70;;
63664;SDS011;49820;33.966;73.390;2022-11-18T03:26:00;7.10;;;4.53;;
63664;SDS011;49820;33.966;73.390;2022-11-18T03:28:37;6.78;;;3.95;;
63664;SDS011;49820;33.966;73.390;2022-11-18T03:31:20;7.40;;;4.10;;
63664;SDS011;49820;33.966;73.390;2022-11-18T03:34:19;7.50;;;4.70;;
63664;SDS011;49820;33.966;73.390;2022-11-18T03:37:08;7.30;;;4.60;;
63664;SDS011;49820;33.966;73.390;2022-11-18T03:39:42;7.47;;;4.32;;
63664;SDS011;49820;33.966;73.390;2022-11-18T03:48:04;6.05;;;4.15;;
63664;SDS011;49820;33.966;73.390;2022-11-18T03:50:40;6.38;;;4.40;;
63664;SDS011;49820;33.966;73.390;2022-11-18T03:53:13;6.47;;;4.00;;
63664;SDS011;49820;33.966;73.390;2022-11-18T03:55:45;6.78;;;4.13;;
63664;SDS011;49820;33.966;73.390;2022-11-18T03:58:26;5.78;;;4.07;;
63664;SDS011;49820;33.966;73.390;2022-11-18T04:01:08;6.50;;;4.07;;
63664;SDS011;49820;33.966;73.390;2022-11-18T04:03:43;7.90;;;4.10;;
63664;SDS011;49820;33.966;73.390;2022-11-18T04:06:18;7.30;;;4.20;;
63664;SDS011;49820;33.966;73.390;2022-11-18T04:08:55;6.88;;;4.20;;
63664;SDS011;49820;33.966;73.390;2022-11-18T04:11:31;7.43;;;4.70;;
63664;SDS011;49820;33.966;73.390;2022-11-18T04:14:24;7.55;;;5.15;;
63664;SDS011;49820;33.966;73.390;2022-11-18T04:16:54;7.85;;;5.10;;
63664;SDS011;49820;33.966;73.390;2022-11-18T04:19:23;7.63;;;4.90;;
63664;SDS011;49820;33.966;73.390;2022-11-18T04:21:51;7.27;;;5.40;;
63664;SDS011;49820;33.966;73.390;2022-11-18T04:24:20;9.80;;;6.13;;
63664;SDS011;49820;33.966;73.390;2022-11-18T04:26:49;10.07;;;6.22;;
63664;SDS011;49820;33.966;73.390;2022-11-18T04:29:18;12.52;;;7.35;;
63664;SDS011;49820;33.966;73.390;2022-11-18T04:31:47;11.48;;;6.95;;
63664;SDS011;49820;33.966;73.390;2022-11-18T04:34:15;9.98;;;6.40;;
63664;SDS011;49820;33.966;73.390;2022-11-18T04:36:44;10.32;;;6.25;;
63664;SDS011;49820;33.966;73.390;2022-11-18T04:39:13;11.43;;;6.13;;
63664;SDS011;49820;33.966;73.390;2022-11-18T04:41:43;9.80;;;6.00;;
63664;SDS011;49820;33.966;73.390;2022-11-18T04:44:26;8.60;;;5.60;;
63664;SDS011;49820;33.966;73.390;2022-11-18T04:47:01;8.20;;;5.40;;
63664;SDS011;49820;33.966;73.390;2022-11-18T04:49:32;9.48;;;6.15;;
63664;SDS011;49820;33.966;73.390;2022-11-18T04:52:02;9.32;;;5.78;;
63664;SDS011;49820;33.966;73.390;2022-11-18T04:54:31;16.33;;;10.20;;
63664;SDS011;49820;33.966;73.390;2022-11-18T04:57:00;10.00;;;6.13;;
63664;SDS011;49820;33.966;73.390;2022-11-18T04:59:29;8.25;;;5.35;;
63664;SDS011;49820;33.966;73.390;2022-11-18T05:02:06;7.20;;;4.70;;
63664;SDS011;49820;33.966;73.390;2022-11-18T05:04:35;6.90;;;4.18;;
63664;SDS011;49820;33.966;73.390;2022-11-18T05:07:05;9.13;;;5.00;;
63664;SDS011;49820;33.966;73.390;2022-11-18T05:09:34;9.75;;;4.72;;
63664;SDS011;49820;33.966;73.390;2022-11-18T05:12:08;7.47;;;4.65;;
63664;SDS011;49820;33.966;73.390;2022-11-18T05:15:00;7.80;;;4.57;;
63664;SDS011;49820;33.966;73.390;2022-11-18T05:17:29;7.13;;;4.70;;
63664;SDS011;49820;33.966;73.390;2022-11-18T05:19:58;8.07;;;4.60;;
63664;SDS011;49820;33.966;73.390;2022-11-18T05:22:27;7.75;;;4.97;;
63664;SDS011;49820;33.966;73.390;2022-11-18T05:24:56;9.07;;;5.50;;
63664;SDS011;49820;33.966;73.390;2022-11-18T05:27:25;8.65;;;5.10;;
63664;SDS011;49820;33.966;73.390;2022-11-18T05:29:54;11.55;;;6.95;;
63664;SDS011;49820;33.966;73.390;2022-11-18T05:32:23;8.38;;;5.40;;
63664;SDS011;49820;33.966;73.390;2022-11-18T05:34:52;8.68;;;5.30;;
63664;SDS011;49820;33.966;73.390;2022-11-18T05:37:21;10.50;;;5.82;;
63664;SDS011;49820;33.966;73.390;2022-11-18T05:39:50;7.80;;;5.03;;
63664;SDS011;49820;33.966;73.390;2022-11-18T05:42:19;8.35;;;5.40;;
63664;SDS011;49820;33.966;73.390;2022-11-18T05:45:26;7.60;;;4.75;;
63664;SDS011;49820;33.966;73.390;2022-11-18T05:47:55;8.20;;;5.22;;
63664;SDS011;49820;33.966;73.390;2022-11-18T05:50:27;7.05;;;4.70;;
63664;SDS011;49820;33.966;73.390;2022-11-18T05:52:56;7.67;;;4.90;;
63664;SDS011;49820;33.966;73.390;2022-11-18T05:55:26;7.28;;;4.80;;
63664;SDS011;49820;33.966;73.390;2022-11-18T05:58:18;7.57;;;4.00;;
63664;SDS011;49820;33.966;73.390;2022-11-18T06:00:47;7.00;;;4.20;;
63664;SDS011;49820;33.966;73.390;2022-11-18T06:03:24;7.18;;;5.00;;
63664;SDS011;49820;33.966;73.390;2022-11-18T06:05:58;6.88;;;4.63;;
63664;SDS011;49820;33.966;73.390;2022-11-18T06:08:30;6.85;;;4.80;;
63664;SDS011;49820;33.966;73.390;2022-11-18T06:11:07;7.60;;;4.70;;
63664;SDS011;49820;33.966;73.390;2022-11-18T06:13:41;7.68;;;4.70;;
63664;SDS011;49820;33.966;73.390;2022-11-18T06:16:17;6.43;;;4.10;;
63664;SDS011;49820;33.966;73.390;2022-11-18T06:18:52;8.45;;;4.13;;
63664;SDS011;49820;33.966;73.390;2022-11-18T06:21:21;8.43;;;4.65;;
63664;SDS011;49820;33.966;73.390;2022-11-18T06:23:50;6.05;;;3.85;;
63664;SDS011;49820;33.966;73.390;2022-11-18T06:26:19;4.53;;;3.03;;
63664;SDS011;49820;33.966;73.390;2022-11-18T06:28:49;3.80;;;2.65;;
63664;SDS011;49820;33.966;73.390;2022-11-18T06:31:18;4.95;;;3.67;;
63664;SDS011;49820;33.966;73.390;2022-11-18T06:33:47;12.75;;;8.68;;
63664;SDS011;49820;33.966;73.390;2022-11-18T06:36:16;13.38;;;8.77;;
63664;SDS011;49820;33.966;73.390;2022-11-18T06:38:44;14.25;;;9.18;;
63664;SDS011;49820;33.966;73.390;2022-11-18T06:41:13;15.85;;;10.57;;
63664;SDS011;49820;33.966;73.390;2022-11-18T06:43:42;16.70;;;10.43;;
63664;SDS011;49820;33.966;73.390;2022-11-18T06:46:12;14.60;;;10.38;;
63664;SDS011;49820;33.966;73.390;2022-11-18T06:49:01;14.48;;;9.85;;
63664;SDS011;49820;33.966;73.390;2022-11-18T06:51:30;16.10;;;9.82;;
63664;SDS011;49820;33.966;73.390;2022-11-18T06:53:59;14.77;;;10.15;;
63664;SDS011;49820;33.966;73.390;2022-11-18T06:56:36;16.50;;;10.48;;
63664;SDS011;49820;33.966;73.390;2022-11-18T06:59:05;14.00;;;9.90;;
63664;SDS011;49820;33.966;73.390;2022-11-18T07:01:35;16.30;;;10.57;;
63664;SDS011;49820;33.966;73.390;2022-11-18T07:04:06;13.63;;;8.35;;
63664;SDS011;49820;33.966;73.390;2022-11-18T07:06:35;12.55;;;7.90;;
63664;SDS011;49820;33.966;73.390;2022-11-18T07:09:05;11.45;;;7.78;;
63664;SDS011;49820;33.966;73.390;2022-11-18T07:11:35;12.00;;;8.38;;
63664;SDS011;49820;33.966;73.390;2022-11-18T07:14:07;12.43;;;8.47;;
63664;SDS011;49820;33.966;73.390;2022-11-18T07:16:36;14.77;;;9.43;;
63664;SDS011;49820;33.966;73.390;2022-11-18T07:19:09;9.88;;;7.20;;
63664;SDS011;49820;33.966;73.390;2022-11-18T07:21:40;12.38;;;8.32;;
63664;SDS011;49820;33.966;73.390;2022-11-18T07:24:11;11.95;;;8.52;;
63664;SDS011;49820;33.966;73.390;2022-11-18T07:26:41;26.83;;;16.63;;
63664;SDS011;49820;33.966;73.390;2022-11-18T07:29:10;11.15;;;6.78;;
63664;SDS011;49820;33.966;73.390;2022-11-18T07:31:39;7.50;;;5.10;;
63664;SDS011;49820;33.966;73.390;2022-11-18T07:34:08;8.40;;;5.32;;
63664;SDS011;49820;33.966;73.390;2022-11-18T07:36:37;9.52;;;6.15;;
63664;SDS011;49820;33.966;73.390;2022-11-18T07:39:06;9.10;;;6.03;;
63664;SDS011;49820;33.966;73.390;2022-11-18T07:41:38;36.90;;;20.20;;
63664;SDS011;49820;33.966;73.390;2022-11-18T07:44:10;9.93;;;6.45;;
63664;SDS011;49820;33.966;73.390;2022-11-18T07:46:39;9.63;;;6.53;;
63664;SDS011;49820;33.966;73.390;2022-11-18T07:49:09;12.30;;;8.70;;
63664;SDS011;49820;33.966;73.390;2022-11-18T07:51:39;13.18;;;9.43;;
63664;SDS011;49820;33.966;73.390;2022-11-18T07:54:09;9.93;;;6.07;;
63664;SDS011;49820;33.966;73.390;2022-11-18T07:56:40;9.85;;;6.82;;
63664;SDS011;49820;33.966;73.390;2022-11-18T07:59:09;12.75;;;8.40;;
63664;SDS011;49820;33.966;73.390;2022-11-18T08:01:38;11.52;;;8.13;;
63664;SDS011;49820;33.966;73.390;2022-11-18T08:04:08;12.43;;;9.23;;
63664;SDS011;49820;33.966;73.390;2022-11-18T08:06:39;10.38;;;7.35;;
63664;SDS011;49820;33.966;73.390;2022-11-18T08:09:08;11.48;;;7.65;;
63664;SDS011;49820;33.966;73.390;2022-11-18T08:11:37;9.45;;;6.60;;
63664;SDS011;49820;33.966;73.390;2022-11-18T08:14:08;12.30;;;8.13;;
63664;SDS011;49820;33.966;73.390;2022-11-18T08:16:37;9.90;;;6.80;;
63664;SDS011;49820;33.966;73.390;2022-11-18T08:19:05;11.13;;;7.40;;
63664;SDS011;49820;33.966;73.390;2022-11-18T08:21:34;10.93;;;7.47;;
63664;SDS011;49820;33.966;73.390;2022-11-18T08:24:04;9.38;;;6.72;;
63664;SDS011;49820;33.966;73.390;2022-11-18T08:26:33;10.02;;;6.70;;
63664;SDS011;49820;33.966;73.390;2022-11-18T08:29:02;9.25;;;7.00;;
63664;SDS011;49820;33.966;73.390;2022-11-18T08:31:31;11.52;;;7.25;;
63664;SDS011;49820;33.966;73.390;2022-11-18T08:34:01;10.43;;;7.70;;
63664;SDS011;49820;33.966;73.390;2022-11-18T08:36:33;10.40;;;7.82;;
63664;SDS011;49820;33.966;73.390;2022-11-18T08:39:06;10.10;;;7.43;;
63664;SDS011;49820;33.966;73.390;2022-11-18T08:41:39;10.85;;;7.78;;
63664;SDS011;49820;33.966;73.390;2022-11-18T08:44:11;10.60;;;7.63;;
63664;SDS011;49820;33.966;73.390;2022-11-18T08:46:44;11.40;;;7.53;;
63664;SDS011;49820;33.966;73.390;2022-11-18T08:49:14;12.80;;;8.88;;
63664;SDS011;49820;33.966;73.390;2022-11-18T08:51:43;13.33;;;9.13;;
63664;SDS011;49820;33.966;73.390;2022-11-18T08:54:12;13.13;;;8.85;;
63664;SDS011;49820;33.966;73.390;2022-11-18T08:56:41;12.32;;;7.72;;
63664;SDS011;49820;33.966;73.390;2022-11-18T08:59:10;11.97;;;8.13;;
63664;SDS011;49820;33.966;73.390;2022-11-18T09:01:40;12.43;;;8.70;;
63664;SDS011;49820;33.966;73.390;2022-11-18T09:04:11;11.23;;;8.30;;
63664;SDS011;49820;33.966;73.390;2022-11-18T09:06:40;12.35;;;8.60;;
63664;SDS011;49820;33.966;73.390;2022-11-18T09:09:09;13.73;;;8.68;;
63664;SDS011;49820;33.966;73.390;2022-11-18T09:11:38;10.95;;;8.10;;
63664;SDS011;49820;33.966;73.390;2022-11-18T09:14:09;11.48;;;8.50;;
63664;SDS011;49820;33.966;73.390;2022-11-18T09:16:59;12.23;;;8.63;;
63664;SDS011;49820;33.966;73.390;2022-11-18T09:19:27;11.43;;;8.25;;
63664;SDS011;49820;33.966;73.390;2022-11-18T09:22:14;12.23;;;9.07;;
63664;SDS011;49820;33.966;73.390;2022-11-18T09:24:43;12.15;;;8.48;;
63664;SDS011;49820;33.966;73.390;2022-11-18T09:27:12;13.50;;;9.38;;
63664;SDS011;49820;33.966;73.390;2022-11-18T09:29:44;14.70;;;9.82;;
63664;SDS011;49820;33.966;73.390;2022-11-18T09:32:14;18.05;;;10.82;;
63664;SDS011;49820;33.966;73.390;2022-11-18T09:34:43;14.23;;;10.30;;
63664;SDS011;49820;33.966;73.390;2022-11-18T09:37:12;15.50;;;10.40;;
63664;SDS011;49820;33.966;73.390;2022-11-18T09:39:41;15.38;;;10.45;;
63664;SDS011;49820;33.966;73.390;2022-11-18T09:42:14;17.90;;;12.57;;
63664;SDS011;49820;33.966;73.390;2022-11-18T09:44:52;16.35;;;11.40;;
63664;SDS011;49820;33.966;73.390;2022-11-18T09:47:36;15.30;;;10.68;;
63664;SDS011;49820;33.966;73.390;2022-11-18T09:50:09;15.50;;;10.80;;
63664;SDS011;49820;33.966;73.390;2022-11-18T09:55:38;12.97;;;9.30;;
63664;SDS011;49820;33.966;73.390;2022-11-18T09:58:11;13.55;;;9.05;;
63664;SDS011;49820;33.966;73.390;2022-11-18T10:00:45;12.15;;;9.50;;
63664;SDS011;49820;33.966;73.390;2022-11-18T10:03:27;13.20;;;9.27;;
63664;SDS011;49820;33.966;73.390;2022-11-18T10:08:44;12.45;;;8.38;;
63664;SDS011;49820;33.966;73.390;2022-11-18T10:11:27;12.95;;;8.85;;
63664;SDS011;49820;33.966;73.390;2022-11-18T10:14:22;13.20;;;8.50;;
63664;SDS011;49820;33.966;73.390;2022-11-18T10:25:01;11.95;;;8.50;;
63664;SDS011;49820;33.966;73.390;2022-11-18T10:27:35;12.65;;;9.13;;
63664;SDS011;49820;33.966;73.390;2022-11-18T10:30:13;12.40;;;8.90;;
63664;SDS011;49820;33.966;73.390;2022-11-18T10:35:33;14.40;;;9.68;;
63664;SDS011;49820;33.966;73.390;2022-11-18T10:38:06;13.70;;;9.23;;
63664;SDS011;49820;33.966;73.390;2022-11-18T10:43:49;14.30;;;9.23;;
63664;SDS011;49820;33.966;73.390;2022-11-18T10:46:24;13.85;;;10.10;;
63664;SDS011;49820;33.966;73.390;2022-11-18T10:51:42;13.55;;;9.20;;
63664;SDS011;49820;33.966;73.390;2022-11-18T10:54:33;13.80;;;9.48;;
63664;SDS011;49820;33.966;73.390;2022-11-18T10:57:11;12.27;;;8.43;;
63664;SDS011;49820;33.966;73.390;2022-11-18T10:59:55;13.03;;;8.57;;
63664;SDS011;49820;33.966;73.390;2022-11-18T11:02:28;12.73;;;9.38;;
63664;SDS011;49820;33.966;73.390;2022-11-18T11:05:11;13.70;;;8.98;;
63664;SDS011;49820;33.966;73.390;2022-11-18T11:08:03;16.13;;;9.95;;
63664;SDS011;49820;33.966;73.390;2022-11-18T11:10:55;16.58;;;10.23;;
63664;SDS011;49820;33.966;73.390;2022-11-18T11:13:26;16.63;;;9.43;;
63664;SDS011;49820;33.966;73.390;2022-11-18T11:15:59;13.18;;;8.90;;
63664;SDS011;49820;33.966;73.390;2022-11-18T11:18:30;15.70;;;9.43;;
63664;SDS011;49820;33.966;73.390;2022-11-18T11:21:13;16.60;;;10.02;;
63664;SDS011;49820;33.966;73.390;2022-11-18T11:23:47;17.58;;;10.82;;
63664;SDS011;49820;33.966;73.390;2022-11-18T11:30:09;16.17;;;9.17;;
63664;SDS011;49820;33.966;73.390;2022-11-18T11:35:26;16.92;;;10.68;;
63664;SDS011;49820;33.966;73.390;2022-11-18T11:49:51;14.65;;;8.88;;
63664;SDS011;49820;33.966;73.390;2022-11-18T11:52:43;13.48;;;7.82;;
63664;SDS011;49820;33.966;73.390;2022-11-18T12:07:17;17.05;;;10.35;;
63664;SDS011;49820;33.966;73.390;2022-11-18T12:15:19;16.88;;;9.23;;
63664;SDS011;49820;33.966;73.390;2022-11-18T12:20:57;16.67;;;10.20;;
63664;SDS011;49820;33.966;73.390;2022-11-18T12:23:27;14.90;;;9.30;;
63664;SDS011;49820;33.966;73.390;2022-11-18T12:26:01;16.05;;;9.25;;
63664;SDS011;49820;33.966;73.390;2022-11-18T12:28:39;14.85;;;9.07;;
63664;SDS011;49820;33.966;73.390;2022-11-18T12:36:48;15.80;;;9.43;;
63664;SDS011;49820;33.966;73.390;2022-11-18T12:44:51;52.45;;;26.92;;
63664;SDS011;49820;33.966;73.390;2022-11-18T12:50:12;63.75;;;31.20;;
63664;SDS011;49820;33.966;73.390;2022-11-18T12:52:44;45.67;;;21.55;;
63664;SDS011;49820;33.966;73.390;2022-11-18T12:55:17;45.78;;;22.40;;
63664;SDS011;49820;33.966;73.390;2022-11-18T12:57:50;53.45;;;24.73;;
63664;SDS011;49820;33.966;73.390;2022-11-18T13:02:52;31.90;;;16.15;;
63664;SDS011;49820;33.966;73.390;2022-11-18T13:05:26;30.77;;;16.17;;
63664;SDS011;49820;33.966;73.390;2022-11-18T13:08:00;22.73;;;12.80;;
63664;SDS011;49820;33.966;73.390;2022-11-18T13:13:27;18.27;;;11.30;;
63664;SDS011;49820;33.966;73.390;2022-11-18T13:16:01;17.67;;;10.55;;
63664;SDS011;49820;33.966;73.390;2022-11-18T13:19:20;16.48;;;10.07;;
63664;SDS011;49820;33.966;73.390;2022-11-18T13:21:53;18.55;;;11.13;;
63664;SDS011;49820;33.966;73.390;2022-11-18T13:24:43;16.95;;;10.48;;
63664;SDS011;49820;33.966;73.390;2022-11-18T13:30:10;18.88;;;10.75;;
63664;SDS011;49820;33.966;73.390;2022-11-18T13:32:45;18.13;;;11.25;;
63664;SDS011;49820;33.966;73.390;2022-11-18T13:35:19;18.33;;;11.25;;
63664;SDS011;49820;33.966;73.390;2022-11-18T13:37:55;19.87;;;11.87;;
63664;SDS011;49820;33.966;73.390;2022-11-18T13:40:27;20.10;;;11.88;;
63664;SDS011;49820;33.966;73.390;2022-11-18T13:43:08;18.17;;;11.23;;
63664;SDS011;49820;33.966;73.390;2022-11-18T13:45:39;18.17;;;11.00;;
63664;SDS011;49820;33.966;73.390;2022-11-18T13:48:08;17.00;;;10.20;;
63664;SDS011;49820;33.966;73.390;2022-11-18T13:50:42;17.02;;;10.52;;
63664;SDS011;49820;33.966;73.390;2022-11-18T13:56:06;18.40;;;11.10;;
63664;SDS011;49820;33.966;73.390;2022-11-18T13:58:54;17.65;;;10.90;;
63664;SDS011;49820;33.966;73.390;2022-11-18T14:01:45;18.10;;;11.35;;
63664;SDS011;49820;33.966;73.390;2022-11-18T14:04:20;18.80;;;10.98;;
63664;SDS011;49820;33.966;73.390;2022-11-18T14:06:52;19.20;;;11.93;;
63664;SDS011;49820;33.966;73.390;2022-11-18T14:09:51;20.42;;;12.02;;
63664;SDS011;49820;33.966;73.390;2022-11-18T14:12:23;17.60;;;11.00;;
63664;SDS011;49820;33.966;73.390;2022-11-18T14:15:17;16.93;;;11.23;;
63664;SDS011;49820;33.966;73.390;2022-11-18T14:17:54;19.15;;;11.43;;
63664;SDS011;49820;33.966;73.390;2022-11-18T14:20:26;19.60;;;10.93;;
63664;SDS011;49820;33.966;73.390;2022-11-18T14:22:58;16.20;;;10.73;;
63664;SDS011;49820;33.966;73.390;2022-11-18T14:28:10;16.63;;;10.67;;
63664;SDS011;49820;33.966;73.390;2022-11-18T14:30:40;17.70;;;10.48;;
63664;SDS011;49820;33.966;73.390;2022-11-18T14:33:11;19.08;;;11.00;;
63664;SDS011;49820;33.966;73.390;2022-11-18T14:35:46;18.45;;;10.32;;
63664;SDS011;49820;33.966;73.390;2022-11-18T14:38:44;17.45;;;9.45;;
63664;SDS011;49820;33.966;73.390;2022-11-18T14:41:37;15.13;;;8.63;;
63664;SDS011;49820;33.966;73.390;2022-11-18T14:44:16;13.45;;;8.10;;
63664;SDS011;49820;33.966;73.390;2022-11-18T14:46:50;13.55;;;7.55;;
63664;SDS011;49820;33.966;73.390;2022-11-18T14:49:23;11.60;;;6.55;;
63664;SDS011;49820;33.966;73.390;2022-11-18T14:51:54;11.77;;;6.97;;
63664;SDS011;49820;33.966;73.390;2022-11-18T14:54:23;10.05;;;5.50;;
63664;SDS011;49820;33.966;73.390;2022-11-18T14:56:59;11.50;;;6.70;;
63664;SDS011;49820;33.966;73.390;2022-11-18T14:59:30;12.77;;;7.20;;
63664;SDS011;49820;33.966;73.390;2022-11-18T15:02:11;9.43;;;5.90;;
63664;SDS011;49820;33.966;73.390;2022-11-18T15:04:43;11.03;;;6.73;;
63664;SDS011;49820;33.966;73.390;2022-11-18T15:07:12;13.43;;;7.63;;
63664;SDS011;49820;33.966;73.390;2022-11-18T15:09:49;13.40;;;7.55;;
63664;SDS011;49820;33.966;73.390;2022-11-18T15:12:18;13.35;;;7.97;;
63664;SDS011;49820;33.966;73.390;2022-11-18T15:14:47;13.77;;;8.10;;
63664;SDS011;49820;33.966;73.390;2022-11-18T15:17:15;13.97;;;8.20;;
63664;SDS011;49820;33.966;73.390;2022-11-18T15:19:46;12.88;;;8.45;;
63664;SDS011;49820;33.966;73.390;2022-11-18T15:22:15;13.25;;;7.95;;
63664;SDS011;49820;33.966;73.390;2022-11-18T15:24:44;14.23;;;8.68;;
63664;SDS011;49820;33.966;73.390;2022-11-18T15:27:13;15.30;;;8.80;;
63664;SDS011;49820;33.966;73.390;2022-11-18T15:29:42;12.98;;;8.38;;
63664;SDS011;49820;33.966;73.390;2022-11-18T15:32:11;14.50;;;9.20;;
63664;SDS011;49820;33.966;73.390;2022-11-18T15:34:40;11.38;;;7.30;;
63664;SDS011;49820;33.966;73.390;2022-11-18T15:37:10;11.03;;;6.93;;
63664;SDS011;49820;33.966;73.390;2022-11-18T15:39:40;12.27;;;7.53;;
63664;SDS011;49820;33.966;73.390;2022-11-18T15:42:09;12.98;;;7.75;;
63664;SDS011;49820;33.966;73.390;2022-11-18T15:44:39;12.57;;;7.50;;
63664;SDS011;49820;33.966;73.390;2022-11-18T15:47:07;13.25;;;7.97;;
63664;SDS011;49820;33.966;73.390;2022-11-18T15:49:36;13.25;;;7.90;;
63664;SDS011;49820;33.966;73.390;2022-11-18T15:52:10;13.48;;;8.38;;
63664;SDS011;49820;33.966;73.390;2022-11-18T15:54:39;15.33;;;9.03;;
63664;SDS011;49820;33.966;73.390;2022-11-18T15:57:08;12.75;;;7.97;;
63664;SDS011;49820;33.966;73.390;2022-11-18T15:59:37;12.77;;;7.75;;
63664;SDS011;49820;33.966;73.390;2022-11-18T16:02:08;13.00;;;7.88;;
63664;SDS011;49820;33.966;73.390;2022-11-18T16:04:38;16.73;;;8.18;;
63664;SDS011;49820;33.966;73.390;2022-11-18T16:07:07;13.10;;;7.70;;
63664;SDS011;49820;33.966;73.390;2022-11-18T16:09:35;14.88;;;7.63;;
63664;SDS011;49820;33.966;73.390;2022-11-18T16:12:23;11.50;;;6.90;;
63664;SDS011;49820;33.966;73.390;2022-11-18T16:15:10;11.10;;;6.65;;
63664;SDS011;49820;33.966;73.390;2022-11-18T16:17:59;11.45;;;6.75;;
63664;SDS011;49820;33.966;73.390;2022-11-18T16:20:28;11.95;;;6.75;;
63664;SDS011;49820;33.966;73.390;2022-11-18T16:22:57;10.88;;;6.50;;
63664;SDS011;49820;33.966;73.390;2022-11-18T16:25:26;11.93;;;6.88;;
63664;SDS011;49820;33.966;73.390;2022-11-18T16:27:56;11.45;;;7.00;;
63664;SDS011;49820;33.966;73.390;2022-11-18T16:30:33;10.37;;;6.40;;
63664;SDS011;49820;33.966;73.390;2022-11-18T16:33:20;9.30;;;6.10;;
63664;SDS011;49820;33.966;73.390;2022-11-18T16:35:49;11.48;;;7.00;;
63664;SDS011;49820;33.966;73.390;2022-11-18T16:38:18;12.00;;;7.43;;
63664;SDS011;49820;33.966;73.390;2022-11-18T16:40:53;11.10;;;6.38;;
63664;SDS011;49820;33.966;73.390;2022-11-18T16:43:24;11.30;;;7.15;;
63664;SDS011;49820;33.966;73.390;2022-11-18T16:45:54;13.95;;;7.22;;
63664;SDS011;49820;33.966;73.390;2022-11-18T16:48:23;10.00;;;6.67;;
63664;SDS011;49820;33.966;73.390;2022-11-18T16:50:56;12.75;;;7.15;;
63664;SDS011;49820;33.966;73.390;2022-11-18T16:53:52;12.32;;;7.22;;
63664;SDS011;49820;33.966;73.390;2022-11-18T16:56:24;11.30;;;7.40;;
63664;SDS011;49820;33.966;73.390;2022-11-18T16:58:59;9.68;;;6.43;;
63664;SDS011;49820;33.966;73.390;2022-11-18T17:01:31;10.73;;;6.93;;
63664;SDS011;49820;33.966;73.390;2022-11-18T17:04:00;11.60;;;6.80;;
63664;SDS011;49820;33.966;73.390;2022-11-18T17:06:30;10.65;;;6.50;;